Time;durP1;ratioP1;P1;durP2;ratioP2;P2;SDS_P1;SDS_P2;PMS_P1;PMS_P2;Temp;Humidity;BMP_temperature;BMP_pressure;BME280_temperature;BME280_humidity;BME280_pressure;Samples;Min_cycle;Max_cycle;Signal;HPM_P1;HPM_P2
2022/06/19 00:01:02;;;;;;;4.90;1.70;;;;;;;11.18;73.00;100866.47;5135653;27;20035;-51
2022/06/19 00:03:34;;;;;;;7.55;1.95;;;;;;;11.23;73.08;100858.69;5134902;27;20027;-50
2022/06/19 00:06:00;;;;;;;6.70;1.90;;;;;;;11.22;72.71;100857.88;5135185;27;20034;-50
2022/06/19 00:08:27;;;;;;;11.05;2.30;;;;;;;11.24;72.51;100837.00;5134729;27;20046;-49
2022/06/19 00:10:53;;;;;;;8.32;2.00;;;;;;;11.32;72.59;100851.34;5134223;28;20450;-53
2022/06/19 00:13:19;;;;;;;5.25;1.60;;;;;;;11.36;72.74;100874.97;5134817;27;20059;-51
2022/06/19 00:15:45;;;;;;;5.22;2.03;;;;;;;11.36;72.06;100866.91;5135919;27;20034;-50
2022/06/19 00:18:11;;;;;;;5.57;1.95;;;;;;;11.45;72.47;100875.72;5136003;27;20107;-49
2022/06/19 00:20:37;;;;;;;4.57;1.48;;;;;;;11.47;72.39;100876.34;5134216;28;20527;-51
2022/06/19 00:23:02;;;;;;;7.32;2.13;;;;;;;11.40;72.08;100876.28;5135229;27;20026;-49
2022/06/19 00:25:28;;;;;;;8.35;1.92;;;;;;;11.36;72.05;100869.59;5135470;27;20585;-52
2022/06/19 00:27:55;;;;;;;9.48;2.30;;;;;;;11.45;72.72;100889.16;5116733;28;20039;-47
2022/06/19 00:30:21;;;;;;;3.00;1.60;;;;;;;11.40;72.54;100881.66;5134734;27;20432;-48
2022/06/19 00:32:46;;;;;;;5.22;1.80;;;;;;;11.30;72.95;100885.66;5134791;27;20059;-49
2022/06/19 00:35:13;;;;;;;7.00;1.98;;;;;;;11.46;72.94;100903.44;5134682;27;20114;-50
2022/06/19 00:37:39;;;;;;;8.75;1.88;;;;;;;11.43;72.69;100891.22;5134205;28;20029;-48
2022/06/19 00:40:07;;;;;;;4.40;1.92;;;;;;;11.53;72.23;100915.09;5136655;27;20019;-48
2022/06/19 00:42:33;;;;;;;10.60;2.28;;;;;;;11.38;72.25;100899.81;5134687;28;20031;-48
2022/06/19 00:45:01;;;;;;;8.02;2.00;;;;;;;11.52;71.83;100911.59;5136166;27;20095;-48
2022/06/19 00:47:29;;;;;;;7.78;2.42;;;;;;;11.51;72.78;100906.41;5135739;27;20368;-48
2022/06/19 00:50:05;;;;;;;10.10;1.98;;;;;;;11.34;72.56;100874.34;5138876;27;20420;-48
2022/06/19 00:52:36;;;;;;;10.38;2.42;;;;;;;11.40;72.65;100870.06;5138661;27;20027;-48
2022/06/19 00:55:16;;;;;;;7.65;2.25;;;;;;;11.46;72.57;100873.84;5137679;27;20455;-48
2022/06/19 00:57:47;;;;;;;4.60;2.10;;;;;;;11.41;72.59;100880.63;5139172;27;20421;-48
2022/06/19 01:00:16;;;;;;;11.32;2.15;;;;;;;11.30;72.66;100869.53;5137540;27;20028;-48
2022/06/19 01:02:44;;;;;;;8.82;2.10;;;;;;;11.33;73.47;100864.63;5139093;27;20106;-48
2022/06/19 01:05:13;;;;;;;11.07;2.20;;;;;;;11.39;73.50;100863.03;5138144;27;20035;-47
2022/06/19 01:07:42;;;;;;;4.97;1.77;;;;;;;11.35;73.17;100845.63;5137510;27;20039;-47
2022/06/19 01:10:08;;;;;;;8.75;2.55;;;;;;;11.36;73.78;100823.88;5137917;27;20120;-46
2022/06/19 01:12:34;;;;;;;7.45;2.28;;;;;;;11.27;73.61;100806.19;5136162;27;20122;-48
2022/06/19 01:15:05;;;;;;;6.32;1.90;;;;;;;11.38;72.87;100821.84;5136214;27;20031;-47
2022/06/19 01:17:33;;;;;;;8.23;2.40;;;;;;;11.35;73.20;100807.97;5138058;27;20027;-49
2022/06/19 01:20:02;;;;;;;10.52;2.63;;;;;;;11.35;73.57;100806.09;5137509;27;20375;-49
2022/06/19 01:22:42;;;;;;;9.52;2.40;;;;;;;11.29;73.58;100796.13;5137710;27;20079;-53
2022/06/19 01:25:11;;;;;;;9.30;2.58;;;;;;;11.29;74.01;100781.81;5139731;27;20032;-50
2022/06/19 01:30:30;;;;;;;8.43;2.10;;;;;;;11.22;73.87;100765.63;5138077;27;20027;-51
2022/06/19 01:32:58;;;;;;;7.95;2.15;;;;;;;11.29;73.45;100768.38;5138841;27;20034;-50
2022/06/19 01:35:28;;;;;;;7.20;1.88;;;;;;;11.31;73.29;100760.94;5138431;27;20065;-49
2022/06/19 01:37:55;;;;;;;7.22;2.20;;;;;;;11.20;73.48;100724.69;5137226;27;20412;-51
2022/06/19 01:40:27;;;;;;;5.47;1.75;;;;;;;11.32;73.36;100746.50;5118558;27;20034;-52
2022/06/19 01:42:54;;;;;;;7.88;1.75;;;;;;;11.18;73.65;100753.56;5137291;27;20046;-53
2022/06/19 01:45:20;;;;;;;8.68;1.85;;;;;;;11.10;73.67;100756.41;5136955;27;20106;-49
2022/06/19 01:47:47;;;;;;;8.80;2.28;;;;;;;11.27;73.47;100797.31;5137523;27;20072;-49
2022/06/19 01:50:16;;;;;;;6.82;1.70;;;;;;;11.20;73.23;100775.75;5136757;27;20027;-49
2022/06/19 01:52:42;;;;;;;10.55;2.03;;;;;;;11.15;73.07;100745.91;5136501;27;20043;-48
2022/06/19 01:55:16;;;;;;;8.50;2.00;;;;;;;11.10;72.97;100705.31;5135402;27;20027;-52
2022/06/19 01:57:46;;;;;;;8.13;2.10;;;;;;;11.15;73.46;100729.78;5136868;27;20031;-50
2022/06/19 02:00:20;;;;;;;8.27;1.90;;;;;;;11.12;73.44;100757.03;5135391;27;20259;-52
2022/06/19 02:03:00;;;;;;;10.35;2.05;;;;;;;11.06;73.70;100772.06;5135742;27;20025;-49
2022/06/19 02:05:26;;;;;;;6.80;1.90;;;;;;;11.06;73.62;100771.25;5135491;27;20073;-50
2022/06/19 02:07:52;;;;;;;7.63;1.92;;;;;;;10.97;74.26;100768.66;5135652;27;20031;-49
2022/06/19 02:10:18;;;;;;;10.10;2.40;;;;;;;10.96;74.56;100791.19;5136464;27;20027;-49
2022/06/19 02:12:44;;;;;;;7.82;2.28;;;;;;;10.88;74.39;100793.97;5136542;27;20452;-49
2022/06/19 02:15:12;;;;;;;9.63;2.25;;;;;;;10.93;74.80;100810.34;5135388;27;20031;-48
2022/06/19 02:17:42;;;;;;;8.18;1.85;;;;;;;10.92;74.35;100823.97;5135134;27;20190;-50
2022/06/19 02:20:10;;;;;;;10.02;1.75;;;;;;;10.73;74.61;100758.22;5136766;27;20035;-49
2022/06/19 02:22:36;;;;;;;5.32;1.45;;;;;;;10.77;75.33;100740.72;5136220;27;20084;-49
2022/06/19 02:25:03;;;;;;;7.20;1.70;;;;;;;10.75;75.14;100757.00;5136165;27;20035;-48
2022/06/19 02:27:32;;;;;;;6.53;1.60;;;;;;;10.75;74.99;100762.38;5134842;27;20023;-50
2022/06/19 02:30:01;;;;;;;7.97;1.77;;;;;;;10.68;74.67;100769.56;5136215;27;20039;-49
2022/06/19 02:32:34;;;;;;;7.85;1.85;;;;;;;10.61;75.31;100774.00;5118493;27;20023;-48
2022/06/19 02:35:00;;;;;;;8.50;2.05;;;;;;;10.60;75.79;100800.00;5135225;27;20063;-48
2022/06/19 02:37:31;;;;;;;14.80;2.28;;;;;;;10.55;75.50;100802.44;5135503;27;20039;-48
2022/06/19 02:40:28;;;;;;;5.78;1.60;;;;;;;10.55;74.85;100802.44;5118097;27;20027;-51
2022/06/19 02:42:54;;;;;;;4.13;1.33;;;;;;;10.59;74.80;100805.59;5135592;27;20025;-48
2022/06/19 02:45:25;;;;;;;11.73;2.00;;;;;;;10.65;74.80;100800.28;5135434;27;20378;-49
2022/06/19 02:47:52;;;;;;;5.53;1.73;;;;;;;10.70;74.53;100809.63;5136488;27;20088;-48
2022/06/19 02:50:23;;;;;;;8.00;2.00;;;;;;;10.67;74.87;100793.91;5136180;27;20035;-48
2022/06/19 02:52:49;;;;;;;5.40;1.83;;;;;;;10.74;74.49;100805.56;5135523;27;20535;-50
2022/06/19 02:55:15;;;;;;;9.23;2.00;;;;;;;10.79;74.40;100824.63;5135531;27;20403;-48
2022/06/19 02:57:41;;;;;;;9.05;1.52;;;;;;;10.80;75.00;100821.75;5135631;27;20027;-50
2022/06/19 03:00:11;;;;;;;5.10;1.27;;;;;;;10.79;74.90;100838.91;5136443;27;20072;-54
2022/06/19 03:02:37;;;;;;;11.25;2.03;;;;;;;10.57;74.69;100795.03;5138001;27;20045;-48
2022/06/19 03:05:05;;;;;;;5.65;1.23;;;;;;;10.71;74.20;100833.63;5136871;27;20055;-49
2022/06/19 03:07:31;;;;;;;7.97;1.52;;;;;;;10.79;74.60;100840.75;5118869;27;20023;-49
2022/06/19 03:09:57;;;;;;;7.22;1.67;;;;;;;10.83;74.47;100828.63;5135843;27;20051;-48
2022/06/19 03:12:23;;;;;;;6.95;2.10;;;;;;;10.75;74.38;100796.47;5136869;27;20035;-49
2022/06/19 03:14:49;;;;;;;10.20;2.15;;;;;;;10.89;74.16;100801.00;5135872;27;20019;-49
2022/06/19 03:17:18;;;;;;;9.65;2.40;;;;;;;10.77;74.34;100781.00;5136630;27;20031;-48
2022/06/19 03:19:44;;;;;;;7.05;1.55;;;;;;;10.90;74.11;100800.00;5137112;27;20023;-49
2022/06/19 03:22:11;;;;;;;6.95;1.77;;;;;;;10.92;74.04;100807.84;5135604;27;20095;-48
2022/06/19 03:24:37;;;;;;;6.60;1.80;;;;;;;10.85;74.18;100797.03;5137037;27;20486;-48
2022/06/19 03:27:04;;;;;;;12.82;2.60;;;;;;;10.89;74.17;100802.88;5135839;27;20039;-49
2022/06/19 03:29:29;;;;;;;3.53;1.30;;;;;;;10.76;74.20;100782.88;5135057;27;20035;-48
2022/06/19 03:31:55;;;;;;;6.47;1.73;;;;;;;10.64;74.31;100761.03;5136394;27;20034;-50
2022/06/19 03:34:21;;;;;;;11.60;2.60;;;;;;;10.58;74.63;100751.00;5136216;27;20038;-49
2022/06/19 03:36:46;;;;;;;6.53;1.75;;;;;;;10.64;74.11;100757.50;5134515;27;20058;-48
2022/06/19 03:39:12;;;;;;;10.63;1.73;;;;;;;10.85;74.65;100802.41;5135953;27;20034;-47
2022/06/19 03:41:39;;;;;;;9.75;2.05;;;;;;;10.65;74.51;100776.13;5134808;28;20455;-48
2022/06/19 03:44:06;;;;;;;8.73;2.05;;;;;;;10.58;74.80;100785.09;5136521;27;20031;-49
2022/06/19 03:46:32;;;;;;;4.22;1.30;;;;;;;10.63;74.82;100780.84;5136474;27;20051;-49
2022/06/19 03:48:58;;;;;;;3.53;1.70;;;;;;;10.62;74.86;100786.38;5135774;27;20414;-48
2022/06/19 03:51:24;;;;;;;5.82;1.75;;;;;;;10.49;74.69;100770.94;5135802;27;20110;-48
2022/06/19 03:53:53;;;;;;;9.02;2.30;;;;;;;10.63;75.35;100798.81;5136247;27;20102;-50
2022/06/19 03:56:23;;;;;;;11.98;2.13;;;;;;;10.62;75.26;100800.69;5135243;28;20119;-48
2022/06/19 03:58:49;;;;;;;13.25;2.78;;;;;;;10.59;75.07;100786.78;5136243;27;20124;-53
2022/06/19 04:01:19;;;;;;;15.57;2.60;;;;;;;10.63;75.13;100798.81;5137554;27;20035;-50
2022/06/19 04:03:46;;;;;;;8.48;2.60;;;;;;;10.57;74.91;100789.66;5135493;27;20056;-48
2022/06/19 04:06:13;;;;;;;7.90;2.28;;;;;;;10.63;75.03;100791.59;5133979;28;20034;-49
2022/06/19 04:08:40;;;;;;;7.10;2.13;;;;;;;10.71;74.86;100809.44;5116786;28;20058;-52
2022/06/19 04:11:07;;;;;;;13.43;2.97;;;;;;;10.67;74.79;100802.78;5135158;27;20110;-52
2022/06/19 04:13:34;;;;;;;12.75;2.47;;;;;;;10.73;75.14;100806.59;5135220;27;20031;-51
2022/06/19 04:16:02;;;;;;;10.48;2.67;;;;;;;10.74;75.21;100800.19;5135715;27;20106;-50
2022/06/19 04:18:30;;;;;;;8.32;2.83;;;;;;;10.76;74.59;100808.91;5135300;27;20035;-53
2022/06/19 04:20:57;;;;;;;10.32;1.90;;;;;;;10.75;75.00;100815.28;5134741;27;20106;-50
2022/06/19 04:23:24;;;;;;;7.72;2.53;;;;;;;10.77;74.50;100816.78;5136184;27;20023;-48
2022/06/19 04:25:51;;;;;;;13.52;2.60;;;;;;;10.76;74.68;100816.97;5139251;27;20059;-48
2022/06/19 04:28:18;;;;;;;15.48;3.17;;;;;;;10.70;74.76;100810.47;5139180;27;20123;-50
2022/06/19 04:30:46;;;;;;;7.60;2.15;;;;;;;10.65;74.48;100810.19;5139315;27;20031;-48
2022/06/19 04:33:14;;;;;;;7.25;1.90;;;;;;;10.58;74.48;100804.72;5137731;27;20107;-51
2022/06/19 04:35:40;;;;;;;9.10;2.47;;;;;;;10.55;74.63;100818.53;5137598;27;20027;-49
2022/06/19 04:38:07;;;;;;;15.25;2.70;;;;;;;10.62;74.84;100832.03;5139234;27;20037;-49
2022/06/19 04:40:34;;;;;;;15.25;3.50;;;;;;;10.64;75.35;100836.25;5138857;27;20393;-49
2022/06/19 04:43:00;;;;;;;11.15;2.67;;;;;;;10.63;74.75;100834.56;5140486;27;20031;-53
2022/06/19 04:45:26;;;;;;;10.75;2.78;;;;;;;10.63;74.86;100820.31;5138823;27;20042;-52
2022/06/19 04:47:52;;;;;;;10.38;2.42;;;;;;;10.51;74.71;100800.28;5120049;27;20023;-51
2022/06/19 04:50:18;;;;;;;9.45;2.63;;;;;;;10.59;74.79;100808.25;5137254;27;20046;-52
2022/06/19 04:52:43;;;;;;;11.40;2.50;;;;;;;10.66;74.69;100833.38;5137890;27;20088;-48
2022/06/19 04:55:12;;;;;;;8.07;2.42;;;;;;;10.64;74.85;100830.88;5139050;27;20031;-48
2022/06/19 04:57:38;;;;;;;9.00;2.63;;;;;;;10.70;74.99;100831.13;5138150;27;20028;-48
2022/06/19 05:00:05;;;;;;;10.13;2.67;;;;;;;10.71;74.82;100832.81;5138881;27;20038;-48
2022/06/19 05:02:31;;;;;;;15.88;2.90;;;;;;;10.59;74.90;100802.91;5120443;27;20019;-49
2022/06/19 05:04:57;;;;;;;13.45;3.08;;;;;;;10.69;75.07;100818.72;5139514;27;20489;-49
2022/06/19 05:07:23;;;;;;;15.65;3.10;;;;;;;10.76;74.76;100846.53;5138143;27;20038;-48
2022/06/19 05:09:48;;;;;;;16.75;2.70;;;;;;;10.52;75.00;100810.03;5139498;27;20079;-48
2022/06/19 05:12:14;;;;;;;12.55;2.38;;;;;;;10.61;74.55;100830.41;5139393;27;20087;-48
2022/06/19 05:14:40;;;;;;;7.65;2.50;;;;;;;10.73;74.53;100850.38;5139517;27;20027;-48
2022/06/19 05:17:06;;;;;;;12.05;2.75;;;;;;;10.61;75.12;100852.72;5139344;27;20383;-48
2022/06/19 05:19:31;;;;;;;7.07;2.60;;;;;;;10.58;75.63;100857.63;5138600;27;20027;-49
2022/06/19 05:22:00;;;;;;;3.33;1.73;;;;;;;10.54;75.31;100849.09;5139085;27;20038;-49
2022/06/19 05:24:26;;;;;;;10.13;2.58;;;;;;;10.59;75.26;100859.28;5138843;27;20114;-48
2022/06/19 05:26:52;;;;;;;7.97;2.58;;;;;;;10.62;75.19;100866.97;5137198;27;20140;-51
2022/06/19 05:29:19;;;;;;;11.82;3.42;;;;;;;10.61;75.46;100862.63;5138421;27;20035;-53
2022/06/19 05:31:45;;;;;;;7.38;2.17;;;;;;;10.69;75.20;100867.06;5138132;27;20042;-50
2022/06/19 05:34:11;;;;;;;11.18;2.78;;;;;;;10.67;75.36;100856.50;5136907;27;20066;-51
2022/06/19 05:36:37;;;;;;;4.93;1.95;;;;;;;10.77;74.40;100864.28;5138322;27;20390;-48
2022/06/19 05:39:04;;;;;;;10.65;2.10;;;;;;;10.39;75.11;100819.53;5139056;27;20027;-48
2022/06/19 05:41:30;;;;;;;9.90;2.15;;;;;;;10.69;75.25;100862.53;5138043;27;20023;-53
2022/06/19 05:43:56;;;;;;;8.55;2.53;;;;;;;10.75;74.43;100851.03;5135874;27;20033;-49
2022/06/19 05:46:23;;;;;;;9.68;3.15;;;;;;;10.88;74.72;100844.19;5138219;27;20019;-49
2022/06/19 05:48:50;;;;;;;12.07;2.67;;;;;;;10.87;74.51;100842.53;5137867;27;20034;-49
2022/06/19 05:51:20;;;;;;;14.48;3.13;;;;;;;10.97;74.50;100846.56;5136746;27;20087;-49
2022/06/19 05:53:51;;;;;;;7.97;2.70;;;;;;;11.01;74.37;100836.28;5137448;27;20031;-51
2022/06/19 05:56:17;;;;;;;11.60;2.53;;;;;;;11.04;74.58;100834.06;5137032;27;20031;-49
2022/06/19 05:58:43;;;;;;;7.60;1.98;;;;;;;11.11;74.19;100836.84;5137289;27;20098;-48
2022/06/19 06:01:10;;;;;;;9.90;2.22;;;;;;;11.18;73.77;100836.91;5137199;27;20455;-47
2022/06/19 06:03:37;;;;;;;10.65;2.40;;;;;;;11.12;73.62;100806.25;5137648;27;20070;-48
2022/06/19 06:06:06;;;;;;;8.32;2.15;;;;;;;11.27;73.95;100822.34;5138112;27;20027;-49
2022/06/19 06:08:35;;;;;;;12.82;2.30;;;;;;;11.38;73.68;100837.97;5137520;27;20066;-48
2022/06/19 06:11:01;;;;;;;12.50;3.05;;;;;;;11.38;73.52;100815.63;5136988;27;20488;-49
2022/06/19 06:13:29;;;;;;;13.00;4.60;;;;;;;11.65;73.40;100834.75;5137211;27;20069;-48
2022/06/19 06:15:55;;;;;;;12.93;2.60;;;;;;;11.75;72.57;100819.94;5136526;27;20549;-48
2022/06/19 06:18:21;;;;;;;11.77;2.80;;;;;;;11.88;72.57;100832.69;5137951;27;20031;-49
2022/06/19 06:20:55;;;;;;;17.80;2.15;;;;;;;12.08;72.04;100838.28;5136497;27;20075;-47
2022/06/19 06:23:21;;;;;;;8.98;2.05;;;;;;;12.10;71.72;100809.31;5137420;27;20042;-47
2022/06/19 06:25:46;;;;;;;9.18;2.30;;;;;;;12.24;71.83;100820.16;5137501;27;20039;-48
2022/06/19 06:28:12;;;;;;;8.90;2.22;;;;;;;12.29;71.59;100782.72;5136894;27;20031;-50
2022/06/19 06:30:38;;;;;;;11.00;2.00;;;;;;;12.29;71.23;100775.47;5135290;27;20451;-48
2022/06/19 06:33:05;;;;;;;10.68;2.20;;;;;;;12.54;70.63;100813.56;5135574;27;20038;-47
2022/06/19 06:35:32;;;;;;;19.95;2.40;;;;;;;12.69;70.05;100813.44;5134778;27;20520;-49
2022/06/19 06:37:59;;;;;;;8.77;1.58;;;;;;;12.76;69.78;100800.00;5136796;27;20123;-49
2022/06/19 06:40:25;;;;;;;7.85;1.85;;;;;;;12.83;69.93;100794.63;5135277;27;20045;-48
2022/06/19 06:42:51;;;;;;;8.52;1.95;;;;;;;12.88;69.48;100792.16;5134709;27;20027;-47
2022/06/19 06:45:17;;;;;;;8.05;1.98;;;;;;;13.13;68.21;100814.88;5134917;27;20467;-49
2022/06/19 06:47:43;;;;;;;7.35;1.77;;;;;;;13.17;68.30;100812.63;5135681;27;20039;-48
2022/06/19 06:50:09;;;;;;;11.18;2.75;;;;;;;13.16;67.70;100789.38;5136183;27;20107;-47
2022/06/19 06:52:35;;;;;;;7.40;1.67;;;;;;;13.25;67.29;100803.50;5136410;27;20513;-48
2022/06/19 06:55:01;;;;;;;10.82;1.88;;;;;;;13.24;67.51;100782.94;5136032;27;20027;-48
2022/06/19 06:57:27;;;;;;;8.93;2.10;;;;;;;13.29;67.39;100792.09;5135960;27;20027;-47
2022/06/19 06:59:52;;;;;;;6.60;1.63;;;;;;;13.39;67.15;100786.38;5135595;27;20019;-47
2022/06/19 07:02:18;;;;;;;10.90;2.38;;;;;;;13.36;66.52;100778.66;5135915;27;20535;-49
2022/06/19 07:04:44;;;;;;;6.35;1.77;;;;;;;13.50;65.99;100793.00;5134705;27;20110;-48
2022/06/19 07:07:10;;;;;;;7.88;1.25;;;;;;;13.57;66.26;100801.13;5135745;27;20027;-48
2022/06/19 07:09:35;;;;;;;7.53;1.85;;;;;;;13.57;66.19;100774.13;5136189;27;20047;-49
2022/06/19 07:12:02;;;;;;;5.50;1.90;;;;;;;13.61;65.60;100764.59;5136435;27;20105;-47
2022/06/19 07:14:28;;;;;;;4.63;1.30;;;;;;;13.60;66.04;100752.97;5136610;27;20054;-49
2022/06/19 07:16:54;;;;;;;10.93;1.80;;;;;;;13.74;65.66;100773.53;5134264;27;20058;-48
2022/06/19 07:19:19;;;;;;;14.30;5.10;;;;;;;13.90;65.54;100771.44;5135978;27;20035;-49
2022/06/19 07:21:45;;;;;;;15.98;2.42;;;;;;;13.92;65.02;100772.06;5135884;27;20027;-48
2022/06/19 07:24:11;;;;;;;6.72;1.63;;;;;;;14.03;64.49;100782.25;5135761;27;20023;-48
2022/06/19 07:26:37;;;;;;;7.70;1.92;;;;;;;14.08;64.14;100787.03;5135258;27;20035;-49
2022/06/19 07:29:03;;;;;;;7.80;1.67;;;;;;;14.04;64.24;100770.41;5135728;27;20035;-51
2022/06/19 07:31:29;;;;;;;8.77;2.08;;;;;;;13.97;63.85;100758.78;5136101;27;20031;-52
2022/06/19 07:33:54;;;;;;;15.18;2.03;;;;;;;14.04;63.14;100765.00;5134652;27;20025;-51
2022/06/19 07:36:22;;;;;;;9.48;1.75;;;;;;;14.10;63.25;100772.28;5134644;27;20038;-53
2022/06/19 07:38:48;;;;;;;11.02;1.20;;;;;;;14.06;63.25;100757.53;5135496;27;20056;-53
2022/06/19 07:41:15;;;;;;;9.48;1.65;;;;;;;14.20;63.24;100777.25;5135156;27;20030;-52
2022/06/19 07:43:43;;;;;;;11.07;1.88;;;;;;;14.16;63.32;100777.88;5135832;27;20035;-51
2022/06/19 07:46:10;;;;;;;8.13;2.00;;;;;;;14.17;63.43;100780.38;5135597;27;20031;-51
2022/06/19 07:51:21;;;;;;;8.55;2.08;;;;;;;14.45;62.56;100761.19;5134906;28;20023;-51
2022/06/19 07:53:47;;;;;;;10.05;1.67;;;;;;;14.61;62.10;100762.63;5135787;27;20030;-50
2022/06/19 07:56:12;;;;;;;13.60;1.77;;;;;;;14.69;62.02;100745.34;5135513;27;20035;-49
2022/06/19 07:58:38;;;;;;;7.00;1.20;;;;;;;14.78;61.66;100743.22;5138448;27;20039;-48
2022/06/19 08:01:04;;;;;;;8.27;1.40;;;;;;;14.87;61.49;100739.25;5139980;27;20031;-49
2022/06/19 08:03:30;;;;;;;5.97;1.38;;;;;;;14.99;61.09;100742.09;5139973;27;20024;-49
2022/06/19 08:05:55;;;;;;;8.45;1.60;;;;;;;15.07;60.34;100726.44;5139997;27;20396;-48
2022/06/19 08:08:25;;;;;;;6.75;1.77;;;;;;;14.99;59.72;100706.91;5139665;27;20043;-48
2022/06/19 08:10:53;;;;;;;6.70;1.08;;;;;;;15.03;59.43;100714.41;5141194;27;20390;-50
2022/06/19 08:13:20;;;;;;;11.18;1.70;;;;;;;15.01;59.36;100721.91;5141225;27;20098;-51
2022/06/19 08:15:49;;;;;;;9.32;1.70;;;;;;;15.00;59.68;100714.00;5140154;27;20038;-52
2022/06/19 08:18:15;;;;;;;6.60;1.42;;;;;;;15.36;59.01;100705.25;5140741;27;20035;-49
2022/06/19 08:20:41;;;;;;;8.65;1.45;;;;;;;16.15;56.19;100669.56;5139341;27;20083;-50
2022/06/19 08:23:07;;;;;;;8.25;1.27;;;;;;;16.45;54.67;100677.75;5139699;27;20026;-52
2022/06/19 08:25:35;;;;;;;8.02;1.50;;;;;;;17.27;52.13;100671.00;5139354;27;20027;-48
2022/06/19 08:28:01;;;;;;;5.47;1.98;;;;;;;17.92;50.71;100665.56;5140337;27;20045;-51
2022/06/19 08:30:31;;;;;;;4.82;1.13;;;;;;;18.23;48.83;100674.38;5140506;27;20031;-50
2022/06/19 08:32:57;;;;;;;7.10;2.50;;;;;;;18.55;47.48;100674.78;5140826;27;20367;-53
2022/06/19 08:35:23;;;;;;;7.68;1.63;;;;;;;18.97;47.40;100661.97;5140443;27;20031;-49
2022/06/19 08:37:58;;;;;;;5.30;1.45;;;;;;;19.10;45.91;100640.69;5122437;27;20031;-52
2022/06/19 08:40:55;;;;;;;4.47;1.38;;;;;;;19.43;45.64;100666.31;5142999;27;20092;-51
2022/06/19 08:43:54;;;;;;;7.55;1.27;;;;;;;19.67;45.78;100658.78;5140229;27;20035;-50
2022/06/19 08:46:56;;;;;;;5.57;1.50;;;;;;;19.68;45.53;100645.97;5140600;27;20400;-52
2022/06/19 08:50:04;;;;;;;3.83;1.25;;;;;;;19.72;44.04;100638.94;5140021;27;20034;-51
2022/06/19 08:52:53;;;;;;;4.35;1.20;;;;;;;19.97;46.11;100656.78;5127212;27;20053;-50
2022/06/19 08:55:35;;;;;;;5.57;1.05;;;;;;;20.36;44.06;100657.56;5137583;27;20038;-48
2022/06/19 08:58:27;;;;;;;4.63;1.08;;;;;;;20.03;45.61;100645.69;5137161;27;20042;-52
2022/06/19 09:01:20;;;;;;;2.97;1.27;;;;;;;20.79;42.10;100582.19;5138544;27;20038;-51
2022/06/19 09:07:47;;;;;;;4.25;1.20;;;;;;;22.69;38.01;100651.69;5118015;27;20031;-50
2022/06/19 09:10:38;;;;;;;5.50;1.75;;;;;;;23.00;39.01;100657.25;5137345;27;20043;-50
2022/06/19 09:13:35;;;;;;;9.20;1.40;;;;;;;23.89;38.23;100663.28;5123145;27;20027;-51
2022/06/19 09:16:10;;;;;;;5.18;1.15;;;;;;;24.03;38.99;100636.06;5137143;27;20350;-50
2022/06/19 09:18:54;;;;;;;9.20;1.63;;;;;;;24.20;35.34;100678.81;5138073;27;20031;-51
2022/06/19 09:21:30;;;;;;;3.97;1.40;;;;;;;23.73;37.84;100687.13;5136498;27;20043;-51
2022/06/19 09:24:13;;;;;;;2.47;1.10;;;;;;;23.00;37.76;100679.97;5137796;27;20509;-50
2022/06/19 09:26:51;;;;;;;4.57;1.08;;;;;;;23.76;38.31;100697.56;5137723;27;20031;-48
2022/06/19 09:29:24;;;;;;;5.25;1.65;;;;;;;23.55;39.62;100696.75;5137868;27;20035;-49
2022/06/19 09:32:00;;;;;;;3.78;1.63;;;;;;;22.75;39.05;100699.91;5137879;27;20080;-48
2022/06/19 09:34:36;;;;;;;3.63;1.27;;;;;;;22.80;38.40;100691.69;5137111;27;20038;-49
2022/06/19 09:37:25;;;;;;;5.07;1.20;;;;;;;22.89;38.78;100694.75;5137577;27;20033;-52
2022/06/19 09:40:00;;;;;;;4.50;1.40;;;;;;;23.08;38.30;100686.03;5136895;27;20038;-49
2022/06/19 09:42:35;;;;;;;5.35;1.27;;;;;;;22.89;36.50;100661.06;5136716;27;20031;-49
2022/06/19 09:45:07;;;;;;;4.13;1.05;;;;;;;22.63;38.07;100712.19;5137763;27;20031;-51
2022/06/19 09:47:42;;;;;;;6.15;1.30;;;;;;;22.72;37.38;100724.28;5137717;27;20027;-52
2022/06/19 09:50:17;;;;;;;4.85;1.30;;;;;;;23.35;37.34;100744.16;5137259;27;20034;-50
2022/06/19 09:52:55;;;;;;;4.20;1.10;;;;;;;24.86;33.90;100738.97;5119061;27;20371;-50
2022/06/19 09:55:30;;;;;;;3.65;1.10;;;;;;;25.47;33.91;100735.03;5136615;27;20152;-49
2022/06/19 09:58:08;;;;;;;4.53;1.13;;;;;;;24.03;34.54;100769.69;5137440;27;20023;-49
2022/06/19 10:00:37;;;;;;;4.18;0.95;;;;;;;23.32;36.26;100774.84;5136700;27;20475;-50
2022/06/19 10:03:17;;;;;;;4.45;1.20;;;;;;;23.98;35.04;100776.03;5136706;27;20035;-51
2022/06/19 10:05:50;;;;;;;2.13;0.93;;;;;;;24.52;34.22;100785.56;5135390;27;20021;-50
2022/06/19 10:08:22;;;;;;;5.13;1.33;;;;;;;23.48;36.99;100796.81;5134989;27;20051;-50
2022/06/19 10:10:56;;;;;;;5.55;1.40;;;;;;;22.90;36.18;100827.88;5119033;27;20034;-52
2022/06/19 10:13:35;;;;;;;2.40;0.87;;;;;;;24.27;35.65;100827.56;5135624;27;20030;-49
2022/06/19 10:16:04;;;;;;;2.75;1.10;;;;;;;25.21;34.44;100830.59;5136844;27;20023;-49
2022/06/19 10:18:35;;;;;;;3.00;1.20;;;;;;;25.30;33.38;100834.41;5135571;27;20030;-51
2022/06/19 10:24:28;;;;;;;1.70;1.00;;;;;;;24.61;33.91;100844.28;5110393;27;20027;-48
2022/06/19 10:27:07;;;;;;;5.00;1.25;;;;;;;24.57;33.99;100834.13;5135004;27;20027;-48
2022/06/19 10:29:48;;;;;;;6.95;1.00;;;;;;;23.88;36.05;100856.38;5136019;27;20027;-50
2022/06/19 10:32:42;;;;;;;5.70;1.30;;;;;;;24.30;34.37;100849.81;5136317;27;20029;-52
2022/06/19 10:35:33;;;;;;;3.92;1.02;;;;;;;24.76;34.58;100829.69;5135349;27;20023;-49
2022/06/19 10:38:39;;;;;;;1.77;0.90;;;;;;;24.44;33.35;100847.31;5135111;27;20031;-48
2022/06/19 10:42:00;;;;;;;3.25;1.15;;;;;;;23.81;35.40;100850.38;5123666;27;20463;-51
2022/06/19 10:44:12;;;;;;;1.55;0.82;;;;;;;23.32;36.90;100835.16;5135451;27;20113;-50
2022/06/19 10:46:40;;;;;;;1.88;0.80;;;;;;;23.53;36.80;100830.56;5134652;27;20027;-50
2022/06/19 10:49:28;;;;;;;2.50;0.70;;;;;;;23.58;33.31;100843.44;5134722;27;20087;-50
2022/06/19 10:52:20;;;;;;;2.70;1.02;;;;;;;24.39;33.31;100841.84;5117279;27;20031;-49
2022/06/19 10:55:02;;;;;;;3.00;0.85;;;;;;;25.21;33.25;100824.28;5121162;27;20056;-49
2022/06/19 10:57:58;;;;;;;1.45;0.80;;;;;;;25.91;31.31;100815.84;5134977;27;20498;-48
2022/06/19 11:00:24;;;;;;;2.47;1.25;;;;;;;26.55;31.30;100830.41;5136387;27;20039;-48
2022/06/19 11:06:00;;;;;;;2.55;1.00;;;;;;;25.19;31.43;100783.31;5134758;27;20064;-52
2022/06/19 11:08:28;;;;;;;2.30;0.73;;;;;;;25.06;33.67;100801.25;5135116;27;20039;-49
2022/06/19 11:10:57;;;;;;;3.45;0.75;;;;;;;25.05;34.42;100787.78;5135370;27;20386;-49
2022/06/19 11:13:24;;;;;;;2.65;0.98;;;;;;;24.77;33.92;100795.63;5135101;27;20027;-48
2022/06/19 11:16:05;;;;;;;1.83;0.93;;;;;;;25.04;32.98;100786.16;5134456;27;20180;-48
2022/06/19 11:18:46;;;;;;;2.00;0.90;;;;;;;26.93;30.34;100786.47;5135848;27;20105;-48
2022/06/19 11:21:15;;;;;;;1.75;0.80;;;;;;;28.57;30.71;100781.03;5134989;27;20113;-48
2022/06/19 11:23:53;;;;;;;5.85;1.00;;;;;;;28.00;26.51;100758.34;5135557;27;20037;-50
2022/06/19 11:26:22;;;;;;;1.63;0.90;;;;;;;26.46;31.07;100775.13;5136137;27;20356;-48
2022/06/19 11:28:58;;;;;;;3.95;1.30;;;;;;;26.47;29.39;100786.97;5117271;27;20023;-48
2022/06/19 11:31:28;;;;;;;2.92;1.00;;;;;;;26.81;31.29;100783.28;5134814;27;20054;-48
2022/06/19 11:33:58;;;;;;;4.10;0.98;;;;;;;27.98;29.38;100785.44;5133591;27;20467;-49
2022/06/19 11:36:28;;;;;;;2.42;0.98;;;;;;;28.86;28.34;100788.22;5134133;27;20536;-49
2022/06/19 11:38:54;;;;;;;2.17;0.88;;;;;;;27.46;29.74;100779.94;5134259;27;20027;-51
2022/06/19 11:41:31;;;;;;;2.70;0.98;;;;;;;27.95;28.62;100772.25;5134426;27;20054;-50
2022/06/19 11:44:19;;;;;;;3.83;0.77;;;;;;;27.70;27.89;100779.00;5116572;28;20035;-53
2022/06/19 11:46:55;;;;;;;3.35;1.23;;;;;;;27.06;27.59;100773.88;5135114;28;20383;-49
2022/06/19 11:49:28;;;;;;;3.05;0.85;;;;;;;27.85;28.78;100777.94;5136209;27;20079;-50
2022/06/19 11:51:57;;;;;;;1.00;0.63;;;;;;;29.16;28.37;100749.97;5135516;28;20066;-50
2022/06/19 11:54:29;;;;;;;2.50;1.00;;;;;;;29.03;26.38;100754.38;5135151;28;20102;-49